sensor_id;sensor_type;location;lat;lon;timestamp;pressure;altitude;pressure_sealevel;temperature;humidity
72210;BME280;60113;48.762;12.302;2024-02-21T00:01:35;98196.78;;;2.69;93.90
72210;BME280;60113;48.762;12.302;2024-02-21T00:04:00;98202.81;;;2.70;93.90
72210;BME280;60113;48.762;12.302;2024-02-21T00:06:25;98192.44;;;2.70;95.28
72210;BME280;60113;48.762;12.302;2024-02-21T00:08:51;98195.84;;;2.72;96.31
72210;BME280;60113;48.762;12.302;2024-02-21T00:11:17;98196.75;;;2.71;95.75
72210;BME280;60113;48.762;12.302;2024-02-21T00:13:42;98193.25;;;2.72;94.96
72210;BME280;60113;48.762;12.302;2024-02-21T00:16:08;98192.34;;;2.73;94.88
72210;BME280;60113;48.762;12.302;2024-02-21T00:18:36;98199.22;;;2.75;94.96
72210;BME280;60113;48.762;12.302;2024-02-21T00:21:02;98199.94;;;2.79;94.05
72210;BME280;60113;48.762;12.302;2024-02-21T00:23:28;98190.44;;;2.80;94.31
72210;BME280;60113;48.762;12.302;2024-02-21T00:25:54;98186.88;;;2.82;94.38
72210;BME280;60113;48.762;12.302;2024-02-21T00:28:19;98192.03;;;2.84;94.46
72210;BME280;60113;48.762;12.302;2024-02-21T00:30:45;98181.66;;;2.84;93.40
72210;BME280;60113;48.762;12.302;2024-02-21T00:33:13;98172.94;;;2.86;93.88
72210;BME280;60113;48.762;12.302;2024-02-21T00:35:39;98173.75;;;2.87;93.87
72210;BME280;60113;48.762;12.302;2024-02-21T00:38:07;98170.34;;;2.86;93.89
72210;BME280;60113;48.762;12.302;2024-02-21T00:40:32;98164.28;;;2.86;93.94
72210;BME280;60113;48.762;12.302;2024-02-21T00:42:58;98161.72;;;2.84;94.46
72210;BME280;60113;48.762;12.302;2024-02-21T00:45:23;98168.72;;;2.82;94.32
72210;BME280;60113;48.762;12.302;2024-02-21T00:47:49;98147.16;;;2.80;95.27
72210;BME280;60113;48.762;12.302;2024-02-21T00:50:14;98145.44;;;2.79;95.54
72210;BME280;60113;48.762;12.302;2024-02-21T00:52:40;98144.66;;;2.77;95.23
72210;BME280;60113;48.762;12.302;2024-02-21T00:55:05;98154.13;;;2.78;94.79
72210;BME280;60113;48.762;12.302;2024-02-21T00:57:31;98144.66;;;2.77;94.09
72210;BME280;60113;48.762;12.302;2024-02-21T00:59:57;98139.50;;;2.75;96.79
72210;BME280;60113;48.762;12.302;2024-02-21T01:02:23;98139.56;;;2.74;96.68
72210;BME280;60113;48.762;12.302;2024-02-21T01:04:48;98128.31;;;2.73;96.71
72210;BME280;60113;48.762;12.302;2024-02-21T01:07:14;98133.53;;;2.72;97.44
72210;BME280;60113;48.762;12.302;2024-02-21T01:09:40;98135.31;;;2.70;96.46
72210;BME280;60113;48.762;12.302;2024-02-21T01:12:06;98129.31;;;2.69;96.41
72210;BME280;60113;48.762;12.302;2024-02-21T01:14:31;98128.44;;;2.69;96.68
72210;BME280;60113;48.762;12.302;2024-02-21T01:16:57;98119.72;;;2.71;96.82
72210;BME280;60113;48.762;12.302;2024-02-21T01:19:22;98132.63;;;2.73;96.34
72210;BME280;60113;48.762;12.302;2024-02-21T01:21:48;98127.44;;;2.73;95.51
72210;BME280;60113;48.762;12.302;2024-02-21T01:24:13;98123.97;;;2.74;95.98
72210;BME280;60113;48.762;12.302;2024-02-21T01:26:40;98118.78;;;2.74;95.17
72210;BME280;60113;48.762;12.302;2024-02-21T01:29:05;98111.84;;;2.74;94.95
72210;BME280;60113;48.762;12.302;2024-02-21T01:31:30;98114.44;;;2.74;95.25
72210;BME280;60113;48.762;12.302;2024-02-21T01:33:56;98117.94;;;2.73;94.44
72210;BME280;60113;48.762;12.302;2024-02-21T01:36:21;98112.78;;;2.72;94.94
72210;BME280;60113;48.762;12.302;2024-02-21T01:38:47;98118.88;;;2.71;94.19
72210;BME280;60113;48.762;12.302;2024-02-21T01:41:12;98112.00;;;2.68;93.75
72210;BME280;60113;48.762;12.302;2024-02-21T01:43:38;98114.72;;;2.65;94.05
72210;BME280;60113;48.762;12.302;2024-02-21T01:46:03;98106.13;;;2.63;94.40
72210;BME280;60113;48.762;12.302;2024-02-21T01:48:29;98105.28;;;2.62;94.24
72210;BME280;60113;48.762;12.302;2024-02-21T01:50:55;98098.34;;;2.63;95.11
72210;BME280;60113;48.762;12.302;2024-02-21T01:53:25;98095.66;;;2.66;94.74
72210;BME280;60113;48.762;12.302;2024-02-21T01:55:53;98092.16;;;2.67;94.47
72210;BME280;60113;48.762;12.302;2024-02-21T01:58:19;98087.81;;;2.68;93.53
72210;BME280;60113;48.762;12.302;2024-02-21T02:00:46;98091.22;;;2.70;94.81
72210;BME280;60113;48.762;12.302;2024-02-21T02:03:13;98078.22;;;2.70;94.90
72210;BME280;60113;48.762;12.302;2024-02-21T02:05:46;98085.97;;;2.71;93.94
72210;BME280;60113;48.762;12.302;2024-02-21T02:08:21;98075.59;;;2.71;94.82
72210;BME280;60113;48.762;12.302;2024-02-21T02:10:48;98068.72;;;2.70;94.26
72210;BME280;60113;48.762;12.302;2024-02-21T02:13:14;98067.91;;;2.68;94.71
72210;BME280;60113;48.762;12.302;2024-02-21T02:15:43;98068.75;;;2.69;94.62
72210;BME280;60113;48.762;12.302;2024-02-21T02:18:09;98068.72;;;2.70;94.76
72210;BME280;60113;48.762;12.302;2024-02-21T02:20:35;98066.91;;;2.72;95.16
72210;BME280;60113;48.762;12.302;2024-02-21T02:25:33;98052.94;;;2.77;94.01
72210;BME280;60113;48.762;12.302;2024-02-21T02:27:58;98052.84;;;2.80;94.02
72210;BME280;60113;48.762;12.302;2024-02-21T02:30:24;98049.28;;;2.82;93.38
72210;BME280;60113;48.762;12.302;2024-02-21T02:32:49;98050.09;;;2.84;92.68
72210;BME280;60113;48.762;12.302;2024-02-21T02:35:15;98039.69;;;2.86;92.47
72210;BME280;60113;48.762;12.302;2024-02-21T02:37:47;98037.94;;;2.86;93.08
72210;BME280;60113;48.762;12.302;2024-02-21T02:40:13;98040.53;;;2.86;92.27
72210;BME280;60113;48.762;12.302;2024-02-21T02:42:38;98035.34;;;2.86;93.03
72210;BME280;60113;48.762;12.302;2024-02-21T02:45:04;98042.28;;;2.86;92.81
72210;BME280;60113;48.762;12.302;2024-02-21T02:47:30;98026.75;;;2.84;92.48
72210;BME280;60113;48.762;12.302;2024-02-21T02:49:55;98031.06;;;2.84;92.75
72210;BME280;60113;48.762;12.302;2024-02-21T02:52:21;98020.63;;;2.85;92.29
72210;BME280;60113;48.762;12.302;2024-02-21T02:54:46;98017.13;;;2.88;92.18
72210;BME280;60113;48.762;12.302;2024-02-21T02:57:18;98027.44;;;2.90;92.76
72210;BME280;60113;48.762;12.302;2024-02-21T02:59:48;98021.34;;;2.91;92.43
72210;BME280;60113;48.762;12.302;2024-02-21T03:02:14;98018.75;;;2.91;91.66
72210;BME280;60113;48.762;12.302;2024-02-21T03:04:39;98019.66;;;2.90;91.99
72210;BME280;60113;48.762;12.302;2024-02-21T03:07:05;98012.75;;;2.88;92.02
72210;BME280;60113;48.762;12.302;2024-02-21T03:09:31;98013.66;;;2.87;92.67
72210;BME280;60113;48.762;12.302;2024-02-21T03:11:56;98021.50;;;2.86;93.06
72210;BME280;60113;48.762;12.302;2024-02-21T03:14:30;98019.81;;;2.85;92.64
72210;BME280;60113;48.762;12.302;2024-02-21T03:16:58;98014.63;;;2.85;92.76
72210;BME280;60113;48.762;12.302;2024-02-21T03:19:23;98012.91;;;2.84;92.89
72210;BME280;60113;48.762;12.302;2024-02-21T03:21:49;98014.56;;;2.86;93.07
72210;BME280;60113;48.762;12.302;2024-02-21T03:24:18;98013.66;;;2.87;93.14
72210;BME280;60113;48.762;12.302;2024-02-21T03:26:44;98009.34;;;2.88;92.60
72210;BME280;60113;48.762;12.302;2024-02-21T03:29:10;98011.94;;;2.88;92.67
72210;BME280;60113;48.762;12.302;2024-02-21T03:31:36;98016.25;;;2.87;93.12
72210;BME280;60113;48.762;12.302;2024-02-21T03:34:02;98011.94;;;2.88;93.24
72210;BME280;60113;48.762;12.302;2024-02-21T03:36:27;98007.56;;;2.88;92.48
72210;BME280;60113;48.762;12.302;2024-02-21T03:38:54;98011.06;;;2.87;92.86
72210;BME280;60113;48.762;12.302;2024-02-21T03:41:20;98005.88;;;2.87;93.16
72210;BME280;60113;48.762;12.302;2024-02-21T03:43:46;98005.03;;;2.87;93.14
72210;BME280;60113;48.762;12.302;2024-02-21T03:46:11;98001.53;;;2.88;93.80
72210;BME280;60113;48.762;12.302;2024-02-21T03:48:37;98001.53;;;2.88;93.74
72210;BME280;60113;48.762;12.302;2024-02-21T03:51:03;97997.22;;;2.87;93.91
72210;BME280;60113;48.762;12.302;2024-02-21T03:53:28;97991.16;;;2.88;93.56
72210;BME280;60113;48.762;12.302;2024-02-21T03:55:54;97996.34;;;2.88;93.96
72210;BME280;60113;48.762;12.302;2024-02-21T03:58:20;97992.00;;;2.88;93.80
72210;BME280;60113;48.762;12.302;2024-02-21T04:00:46;97984.19;;;2.88;93.74
72210;BME280;60113;48.762;12.302;2024-02-21T04:03:11;97987.66;;;2.89;93.84
72210;BME280;60113;48.762;12.302;2024-02-21T04:05:37;97989.28;;;2.92;93.71
72210;BME280;60113;48.762;12.302;2024-02-21T04:08:05;97991.84;;;2.93;94.00
72210;BME280;60113;48.762;12.302;2024-02-21T04:10:31;97988.34;;;2.94;93.53
72210;BME280;60113;48.762;12.302;2024-02-21T04:12:57;98001.25;;;2.97;92.91
72210;BME280;60113;48.762;12.302;2024-02-21T04:15:22;97997.78;;;2.97;93.21
72210;BME280;60113;48.762;12.302;2024-02-21T04:17:48;97988.25;;;2.97;93.21
72210;BME280;60113;48.762;12.302;2024-02-21T04:20:15;97986.50;;;2.98;93.03
72210;BME280;60113;48.762;12.302;2024-02-21T04:22:45;97982.22;;;2.97;93.59
72210;BME280;60113;48.762;12.302;2024-02-21T04:25:11;97977.94;;;2.96;93.69
72210;BME280;60113;48.762;12.302;2024-02-21T04:27:39;97970.09;;;2.97;93.30
72210;BME280;60113;48.762;12.302;2024-02-21T04:30:06;97971.81;;;2.97;93.49
72210;BME280;60113;48.762;12.302;2024-02-21T04:32:32;97973.56;;;2.96;93.82
72210;BME280;60113;48.762;12.302;2024-02-21T04:34:57;97969.28;;;2.95;93.49
72210;BME280;60113;48.762;12.302;2024-02-21T04:37:23;97971.88;;;2.95;93.42
72210;BME280;60113;48.762;12.302;2024-02-21T04:39:49;97970.19;;;2.94;93.39
72210;BME280;60113;48.762;12.302;2024-02-21T04:42:15;97964.94;;;2.96;93.13
72210;BME280;60113;48.762;12.302;2024-02-21T04:44:41;97968.38;;;2.96;93.13
72210;BME280;60113;48.762;12.302;2024-02-21T04:47:07;97964.03;;;2.97;92.71
72210;BME280;60113;48.762;12.302;2024-02-21T04:49:33;97968.38;;;2.96;92.74
72210;BME280;60113;48.762;12.302;2024-02-21T04:51:58;97955.38;;;2.96;92.47
72210;BME280;60113;48.762;12.302;2024-02-21T04:54:24;97961.44;;;2.97;92.67
72210;BME280;60113;48.762;12.302;2024-02-21T04:56:50;97953.69;;;2.95;92.38
72210;BME280;60113;48.762;12.302;2024-02-21T04:59:16;97946.78;;;2.96;92.13
72210;BME280;60113;48.762;12.302;2024-02-21T05:01:42;97940.72;;;2.95;92.41
72210;BME280;60113;48.762;12.302;2024-02-21T05:04:08;97939.03;;;2.94;92.62
72210;BME280;60113;48.762;12.302;2024-02-21T05:06:40;97940.78;;;2.94;92.84
72210;BME280;60113;48.762;12.302;2024-02-21T05:09:06;97933.09;;;2.91;93.27
72210;BME280;60113;48.762;12.302;2024-02-21T05:11:32;97934.97;;;2.85;91.79
72210;BME280;60113;48.762;12.302;2024-02-21T05:13:57;97928.09;;;2.84;92.11
72210;BME280;60113;48.762;12.302;2024-02-21T05:16:23;97923.88;;;2.82;92.52
72210;BME280;60113;48.762;12.302;2024-02-21T05:18:48;97923.91;;;2.80;92.71
72210;BME280;60113;48.762;12.302;2024-02-21T05:21:14;97920.50;;;2.78;92.18
72210;BME280;60113;48.762;12.302;2024-02-21T05:23:40;97924.03;;;2.77;91.85
72210;BME280;60113;48.762;12.302;2024-02-21T05:26:06;97924.91;;;2.76;91.69
72210;BME280;60113;48.762;12.302;2024-02-21T05:28:32;97918.06;;;2.73;91.62
72210;BME280;60113;48.762;12.302;2024-02-21T05:30:57;97907.69;;;2.73;92.18
72210;BME280;60113;48.762;12.302;2024-02-21T05:33:24;97904.13;;;2.76;91.59
72210;BME280;60113;48.762;12.302;2024-02-21T05:35:49;97910.19;;;2.77;91.45
72210;BME280;60113;48.762;12.302;2024-02-21T05:38:15;97910.19;;;2.77;91.55
72210;BME280;60113;48.762;12.302;2024-02-21T05:40:41;97905.00;;;2.77;91.93
72210;BME280;60113;48.762;12.302;2024-02-21T05:43:07;97898.13;;;2.75;91.66
72210;BME280;60113;48.762;12.302;2024-02-21T05:45:33;97896.34;;;2.76;91.73
72210;BME280;60113;48.762;12.302;2024-02-21T05:47:59;97905.00;;;2.77;92.10
72210;BME280;60113;48.762;12.302;2024-02-21T05:50:25;97893.69;;;2.78;91.73
72210;BME280;60113;48.762;12.302;2024-02-21T05:52:53;97896.28;;;2.78;91.99
72210;BME280;60113;48.762;12.302;2024-02-21T05:55:19;97892.81;;;2.79;92.42
72210;BME280;60113;48.762;12.302;2024-02-21T05:57:45;97901.38;;;2.81;91.77
72210;BME280;60113;48.762;12.302;2024-02-21T06:00:11;97892.72;;;2.82;91.69
72210;BME280;60113;48.762;12.302;2024-02-21T06:02:36;97884.06;;;2.81;91.75
72210;BME280;60113;48.762;12.302;2024-02-21T06:05:01;97885.81;;;2.81;91.70
72210;BME280;60113;48.762;12.302;2024-02-21T06:07:27;97885.75;;;2.82;92.01
72210;BME280;60113;48.762;12.302;2024-02-21T06:09:52;97880.56;;;2.82;92.11
72210;BME280;60113;48.762;12.302;2024-02-21T06:12:18;97888.31;;;2.84;92.50
72210;BME280;60113;48.762;12.302;2024-02-21T06:14:43;97881.38;;;2.84;92.14
72210;BME280;60113;48.762;12.302;2024-02-21T06:17:09;97883.06;;;2.85;92.26
72210;BME280;60113;48.762;12.302;2024-02-21T06:19:35;97871.84;;;2.85;92.30
72210;BME280;60113;48.762;12.302;2024-02-21T06:22:00;97875.22;;;2.87;92.54
72210;BME280;60113;48.762;12.302;2024-02-21T06:24:25;97869.16;;;2.88;92.38
72210;BME280;60113;48.762;12.302;2024-02-21T06:26:51;97869.88;;;2.92;92.74
72210;BME280;60113;48.762;12.302;2024-02-21T06:29:17;97866.34;;;2.94;92.47
72210;BME280;60113;48.762;12.302;2024-02-21T06:31:42;97856.78;;;2.95;92.87
72210;BME280;60113;48.762;12.302;2024-02-21T06:34:08;97863.63;;;2.97;92.78
72210;BME280;60113;48.762;12.302;2024-02-21T06:36:33;97860.97;;;2.99;92.29
72210;BME280;60113;48.762;12.302;2024-02-21T06:38:59;97868.72;;;3.00;92.82
72210;BME280;60113;48.762;12.302;2024-02-21T06:41:24;97869.50;;;3.03;92.43
72210;BME280;60113;48.762;12.302;2024-02-21T06:43:50;97859.97;;;3.03;91.96
72210;BME280;60113;48.762;12.302;2024-02-21T06:46:26;97859.00;;;3.06;92.06
72210;BME280;60113;48.762;12.302;2024-02-21T06:48:52;97856.41;;;3.06;92.24
72210;BME280;60113;48.762;12.302;2024-02-21T06:51:17;97859.00;;;3.06;92.11
72210;BME280;60113;48.762;12.302;2024-02-21T06:53:43;97848.56;;;3.07;92.16
72210;BME280;60113;48.762;12.302;2024-02-21T06:56:09;97848.56;;;3.07;92.64
72210;BME280;60113;48.762;12.302;2024-02-21T06:58:35;97862.28;;;3.11;92.65
72210;BME280;60113;48.762;12.302;2024-02-21T07:01:01;97863.03;;;3.15;92.46
72210;BME280;60113;48.762;12.302;2024-02-21T07:03:27;97864.56;;;3.20;92.28
72210;BME280;60113;48.762;12.302;2024-02-21T07:05:53;97861.72;;;3.27;92.42
72210;BME280;60113;48.762;12.302;2024-02-21T07:08:18;97864.97;;;3.33;93.28
72210;BME280;60113;48.762;12.302;2024-02-21T07:10:44;97872.50;;;3.40;92.45
72210;BME280;60113;48.762;12.302;2024-02-21T07:13:09;97870.53;;;3.46;92.55
72210;BME280;60113;48.762;12.302;2024-02-21T07:15:35;97859.06;;;3.52;92.85
72210;BME280;60113;48.762;12.302;2024-02-21T07:18:01;97864.81;;;3.60;92.11
72210;BME280;60113;48.762;12.302;2024-02-21T07:20:27;97868.03;;;3.67;92.20
72210;BME280;60113;48.762;12.302;2024-02-21T07:22:53;97868.56;;;3.75;91.97
72210;BME280;60113;48.762;12.302;2024-02-21T07:25:18;97876.09;;;3.83;91.64
72210;BME280;60113;48.762;12.302;2024-02-21T07:27:44;97880.22;;;3.89;92.17
72210;BME280;60113;48.762;12.302;2024-02-21T07:30:10;97884.25;;;3.96;91.92
72210;BME280;60113;48.762;12.302;2024-02-21T07:32:35;97877.97;;;4.02;91.49
72210;BME280;60113;48.762;12.302;2024-02-21T07:35:00;97880.31;;;4.08;91.60
72210;BME280;60113;48.762;12.302;2024-02-21T07:37:26;97886.28;;;4.12;91.32
72210;BME280;60113;48.762;12.302;2024-02-21T07:39:52;97882.50;;;4.19;91.03
72210;BME280;60113;48.762;12.302;2024-02-21T07:42:17;97878.88;;;4.23;91.19
72210;BME280;60113;48.762;12.302;2024-02-21T07:44:43;97892.41;;;4.32;90.66
72210;BME280;60113;48.762;12.302;2024-02-21T07:47:08;97891.25;;;4.39;90.85
72210;BME280;60113;48.762;12.302;2024-02-21T07:49:40;97887.50;;;4.46;90.56
72210;BME280;60113;48.762;12.302;2024-02-21T07:52:06;97885.50;;;4.53;91.04
72210;BME280;60113;48.762;12.302;2024-02-21T07:54:31;97883.50;;;4.60;90.49
72210;BME280;60113;48.762;12.302;2024-02-21T07:56:57;97876.41;;;4.63;90.29
72210;BME280;60113;48.762;12.302;2024-02-21T07:59:22;97879.78;;;4.66;90.15
72210;BME280;60113;48.762;12.302;2024-02-21T08:01:47;97884.91;;;4.67;90.20
72210;BME280;60113;48.762;12.302;2024-02-21T08:04:13;97889.06;;;4.71;90.74
72210;BME280;60113;48.762;12.302;2024-02-21T08:06:39;97884.66;;;4.73;90.80
72210;BME280;60113;48.762;12.302;2024-02-21T08:09:05;97879.25;;;4.78;90.66
72210;BME280;60113;48.762;12.302;2024-02-21T08:11:30;97868.72;;;4.81;90.48
72210;BME280;60113;48.762;12.302;2024-02-21T08:13:55;97865.91;;;4.86;90.27
72210;BME280;60113;48.762;12.302;2024-02-21T08:16:21;97851.09;;;5.07;91.34
72210;BME280;60113;48.762;12.302;2024-02-21T08:18:48;97850.81;;;5.34;93.23
72210;BME280;60113;48.762;12.302;2024-02-21T08:21:13;97838.25;;;5.62;95.34
72210;BME280;60113;48.762;12.302;2024-02-21T08:23:38;97833.22;;;5.96;99.77
72210;BME280;60113;48.762;12.302;2024-02-21T08:26:04;97828.84;;;6.33;100.00
72210;BME280;60113;48.762;12.302;2024-02-21T08:28:30;97827.75;;;6.73;100.00
72210;BME280;60113;48.762;12.302;2024-02-21T08:30:56;97822.72;;;7.04;100.00
72210;BME280;60113;48.762;12.302;2024-02-21T08:33:21;97817.94;;;7.44;100.00
72210;BME280;60113;48.762;12.302;2024-02-21T08:35:51;97819.66;;;7.78;100.00
72210;BME280;60113;48.762;12.302;2024-02-21T08:38:17;97822.94;;;7.97;100.00
72210;BME280;60113;48.762;12.302;2024-02-21T08:40:42;97826.44;;;8.12;100.00
72210;BME280;60113;48.762;12.302;2024-02-21T08:43:07;97825.66;;;8.26;100.00
72210;BME280;60113;48.762;12.302;2024-02-21T08:45:33;97807.75;;;8.35;100.00
72210;BME280;60113;48.762;12.302;2024-02-21T08:47:58;97805.63;;;8.42;100.00
72210;BME280;60113;48.762;12.302;2024-02-21T08:50:24;97800.66;;;8.51;100.00
72210;BME280;60113;48.762;12.302;2024-02-21T08:52:49;97800.91;;;8.63;99.30
72210;BME280;60113;48.762;12.302;2024-02-21T08:55:15;97799.50;;;8.72;100.00
72210;BME280;60113;48.762;12.302;2024-02-21T08:57:40;97796.66;;;8.91;100.00
72210;BME280;60113;48.762;12.302;2024-02-21T09:00:06;97805.16;;;9.09;100.00
72210;BME280;60113;48.762;12.302;2024-02-21T09:02:40;97810.22;;;9.27;100.00
72210;BME280;60113;48.762;12.302;2024-02-21T09:05:05;97827.69;;;9.41;100.00
72210;BME280;60113;48.762;12.302;2024-02-21T09:07:31;97817.47;;;9.51;100.00
72210;BME280;60113;48.762;12.302;2024-02-21T09:09:56;97811.84;;;9.57;99.62
72210;BME280;60113;48.762;12.302;2024-02-21T09:12:22;97818.56;;;9.61;100.00
72210;BME280;60113;48.762;12.302;2024-02-21T09:14:48;97813.22;;;9.78;98.05
72210;BME280;60113;48.762;12.302;2024-02-21T09:17:16;97813.19;;;9.92;96.86
72210;BME280;60113;48.762;12.302;2024-02-21T09:19:43;97804.19;;;10.09;97.70
72210;BME280;60113;48.762;12.302;2024-02-21T09:22:09;97793.81;;;10.21;100.00
72210;BME280;60113;48.762;12.302;2024-02-21T09:24:34;97786.28;;;10.42;100.00
72210;BME280;60113;48.762;12.302;2024-02-21T09:26:59;97785.41;;;10.56;92.79
72210;BME280;60113;48.762;12.302;2024-02-21T09:29:25;97781.22;;;10.67;99.26
72210;BME280;60113;48.762;12.302;2024-02-21T09:31:51;97786.34;;;10.68;90.60
72210;BME280;60113;48.762;12.302;2024-02-21T09:34:17;97782.47;;;10.87;96.73
72210;BME280;60113;48.762;12.302;2024-02-21T09:36:44;97771.94;;;11.00;91.35
72210;BME280;60113;48.762;12.302;2024-02-21T09:39:10;97773.41;;;11.04;91.03
72210;BME280;60113;48.762;12.302;2024-02-21T09:41:44;97765.13;;;10.97;87.88
72210;BME280;60113;48.762;12.302;2024-02-21T09:44:12;97756.81;;;10.91;87.54
72210;BME280;60113;48.762;12.302;2024-02-21T09:49:33;97761.44;;;10.74;84.67
72210;BME280;60113;48.762;12.302;2024-02-21T09:52:03;97761.03;;;10.80;86.43
72210;BME280;60113;48.762;12.302;2024-02-21T09:54:29;97751.44;;;10.79;88.19
72210;BME280;60113;48.762;12.302;2024-02-21T09:56:56;97749.03;;;10.89;87.92
72210;BME280;60113;48.762;12.302;2024-02-21T09:59:22;97744.50;;;10.91;84.78
72210;BME280;60113;48.762;12.302;2024-02-21T10:01:49;97737.44;;;10.92;83.04
72210;BME280;60113;48.762;12.302;2024-02-21T10:04:16;97741.66;;;10.94;86.67
72210;BME280;60113;48.762;12.302;2024-02-21T10:06:41;97736.59;;;11.04;86.04
72210;BME280;60113;48.762;12.302;2024-02-21T10:09:07;97741.31;;;11.12;85.05
72210;BME280;60113;48.762;12.302;2024-02-21T10:11:33;97738.56;;;11.13;81.48
72210;BME280;60113;48.762;12.302;2024-02-21T10:14:07;97733.03;;;11.05;77.39
72210;BME280;60113;48.762;12.302;2024-02-21T10:16:33;97730.28;;;11.07;80.16
72210;BME280;60113;48.762;12.302;2024-02-21T10:18:59;97733.97;;;11.04;82.59
72210;BME280;60113;48.762;12.302;2024-02-21T10:21:25;97723.00;;;11.10;81.89
72210;BME280;60113;48.762;12.302;2024-02-21T10:23:51;97721.97;;;11.13;81.54
72210;BME280;60113;48.762;12.302;2024-02-21T10:26:18;97725.09;;;11.18;79.09
72210;BME280;60113;48.762;12.302;2024-02-21T10:28:44;97733.34;;;11.38;80.75
72210;BME280;60113;48.762;12.302;2024-02-21T10:31:21;97722.97;;;11.61;81.83
72210;BME280;60113;48.762;12.302;2024-02-21T10:33:56;97713.03;;;11.89;81.21
72210;BME280;60113;48.762;12.302;2024-02-21T10:36:23;97706.56;;;12.18;82.60
72210;BME280;60113;48.762;12.302;2024-02-21T10:38:49;97705.00;;;12.15;78.70
72210;BME280;60113;48.762;12.302;2024-02-21T10:41:15;97708.00;;;12.22;80.64
72210;BME280;60113;48.762;12.302;2024-02-21T10:43:42;97705.53;;;12.32;80.01
72210;BME280;60113;48.762;12.302;2024-02-21T10:46:12;97692.59;;;12.40;79.62
72210;BME280;60113;48.762;12.302;2024-02-21T10:48:44;97693.06;;;12.45;75.77
72210;BME280;60113;48.762;12.302;2024-02-21T10:56:33;97681.94;;;12.76;79.89
72210;BME280;60113;48.762;12.302;2024-02-21T10:59:05;97677.63;;;12.75;76.39
72210;BME280;60113;48.762;12.302;2024-02-21T11:01:31;97675.59;;;12.67;79.67
72210;BME280;60113;48.762;12.302;2024-02-21T11:04:00;97660.84;;;12.53;73.62
72210;BME280;60113;48.762;12.302;2024-02-21T11:06:27;97657.88;;;12.69;79.45
72210;BME280;60113;48.762;12.302;2024-02-21T11:09:28;97636.53;;;12.72;66.56
72210;BME280;60113;48.762;12.302;2024-02-21T11:11:56;97637.47;;;12.94;77.26
72210;BME280;60113;48.762;12.302;2024-02-21T11:14:26;97631.13;;;12.62;68.15
72210;BME280;60113;48.762;12.302;2024-02-21T11:16:52;97640.13;;;12.60;76.08
72210;BME280;60113;48.762;12.302;2024-02-21T11:19:22;97626.84;;;12.61;75.66
72210;BME280;60113;48.762;12.302;2024-02-21T11:21:48;97619.53;;;12.65;77.02
72210;BME280;60113;48.762;12.302;2024-02-21T11:24:13;97615.56;;;12.71;74.16
72210;BME280;60113;48.762;12.302;2024-02-21T11:26:40;97616.91;;;12.65;72.68
72210;BME280;60113;48.762;12.302;2024-02-21T11:29:08;97620.38;;;12.43;73.34
72210;BME280;60113;48.762;12.302;2024-02-21T11:31:43;97609.09;;;12.18;69.31
72210;BME280;60113;48.762;12.302;2024-02-21T11:34:11;97597.97;;;12.25;74.74
72210;BME280;60113;48.762;12.302;2024-02-21T11:36:52;97592.81;;;12.35;68.87
72210;BME280;60113;48.762;12.302;2024-02-21T11:39:25;97583.47;;;12.54;72.03
72210;BME280;60113;48.762;12.302;2024-02-21T11:42:05;97577.59;;;12.50;70.38
72210;BME280;60113;48.762;12.302;2024-02-21T11:44:31;97569.81;;;12.60;73.33
72210;BME280;60113;48.762;12.302;2024-02-21T11:46:57;97565.13;;;12.64;74.28
72210;BME280;60113;48.762;12.302;2024-02-21T11:49:28;97568.72;;;12.63;70.91
72210;BME280;60113;48.762;12.302;2024-02-21T11:52:03;97561.91;;;12.60;68.31
72210;BME280;60113;48.762;12.302;2024-02-21T11:54:33;97561.03;;;12.71;71.97
72210;BME280;60113;48.762;12.302;2024-02-21T11:56:59;97541.31;;;12.87;70.80
72210;BME280;60113;48.762;12.302;2024-02-21T11:59:25;97539.53;;;12.87;69.79
72210;BME280;60113;48.762;12.302;2024-02-21T12:01:52;97530.88;;;12.97;71.45
72210;BME280;60113;48.762;12.302;2024-02-21T12:04:20;97527.50;;;13.06;71.24
72210;BME280;60113;48.762;12.302;2024-02-21T12:06:46;97517.16;;;13.15;70.91
72210;BME280;60113;48.762;12.302;2024-02-21T12:09:15;97523.34;;;13.25;70.33
72210;BME280;60113;48.762;12.302;2024-02-21T12:11:44;97525.19;;;13.13;58.76
72210;BME280;60113;48.762;12.302;2024-02-21T12:14:10;97519.66;;;13.16;72.21
72210;BME280;60113;48.762;12.302;2024-02-21T12:16:36;97509.38;;;13.13;70.27
72210;BME280;60113;48.762;12.302;2024-02-21T12:19:02;97507.75;;;13.00;67.28
72210;BME280;60113;48.762;12.302;2024-02-21T12:21:33;97507.28;;;12.84;70.34
72210;BME280;60113;48.762;12.302;2024-02-21T12:24:22;97505.59;;;12.50;56.00
72210;BME280;60113;48.762;12.302;2024-02-21T12:26:49;97500.81;;;12.44;70.19
72210;BME280;60113;48.762;12.302;2024-02-21T12:29:15;97502.88;;;12.40;71.03
72210;BME280;60113;48.762;12.302;2024-02-21T12:31:41;97490.41;;;12.42;69.88
72210;BME280;60113;48.762;12.302;2024-02-21T12:34:06;97497.22;;;12.45;71.88
72210;BME280;60113;48.762;12.302;2024-02-21T12:36:36;97496.63;;;12.53;69.34
72210;BME280;60113;48.762;12.302;2024-02-21T12:39:01;97482.09;;;12.58;71.70
72210;BME280;60113;48.762;12.302;2024-02-21T12:41:29;97488.47;;;12.56;69.21
72210;BME280;60113;48.762;12.302;2024-02-21T12:43:55;97488.25;;;12.47;68.33
72210;BME280;60113;48.762;12.302;2024-02-21T12:46:22;97477.00;;;12.34;68.08
72210;BME280;60113;48.762;12.302;2024-02-21T12:48:47;97464.19;;;12.29;69.74
72210;BME280;60113;48.762;12.302;2024-02-21T12:51:13;97462.19;;;12.21;68.46
72210;BME280;60113;48.762;12.302;2024-02-21T12:53:39;97469.59;;;12.16;68.02
72210;BME280;60113;48.762;12.302;2024-02-21T12:56:05;97454.63;;;12.05;67.58
72210;BME280;60113;48.762;12.302;2024-02-21T12:58:31;97447.31;;;11.97;68.29
72210;BME280;60113;48.762;12.302;2024-02-21T13:00:57;97442.28;;;11.94;67.20
72210;BME280;60113;48.762;12.302;2024-02-21T13:03:22;97438.34;;;11.88;65.92
72210;BME280;60113;48.762;12.302;2024-02-21T13:05:48;97432.84;;;11.92;67.66